createdAt,value
2022-11-26T00:01:23.256Z,14.67
2022-11-26T00:03:52.384Z,14.97
2022-11-26T00:06:26.186Z,14.07
2022-11-26T00:08:53.624Z,13.87
2022-11-26T00:11:21.010Z,13.77
2022-11-26T00:13:48.422Z,13.43
2022-11-26T00:16:16.318Z,12.90
2022-11-26T00:18:44.197Z,14.70
2022-11-26T00:21:16.663Z,14.03
2022-11-26T00:23:46.915Z,13.80
2022-11-26T00:26:15.672Z,14.43
2022-11-26T00:28:47.646Z,15.87
2022-11-26T00:31:16.448Z,14.37
2022-11-26T00:33:44.216Z,14.53
2022-11-26T00:36:16.611Z,14.57
2022-11-26T00:38:45.642Z,13.73
2022-11-26T00:41:15.774Z,11.90
2022-11-26T00:43:43.223Z,15.13
2022-11-26T00:46:12.290Z,14.43
2022-11-26T00:48:39.707Z,14.53
2022-11-26T00:51:07.573Z,13.27
2022-11-26T00:53:35.450Z,13.73
2022-11-26T00:56:04.241Z,14.30
2022-11-26T00:58:31.640Z,13.60
2022-11-26T01:01:00.500Z,15.03
2022-11-26T01:03:28.081Z,16.50
2022-11-26T01:05:56.205Z,13.33
2022-11-26T01:08:29.579Z,14.37
2022-11-26T01:10:57.252Z,13.47
2022-11-26T01:13:27.119Z,13.73
2022-11-26T01:15:55.164Z,14.60
2022-11-26T01:18:23.337Z,13.23
2022-11-26T01:20:51.266Z,15.53
2022-11-26T01:23:19.718Z,15.47
2022-11-26T01:25:47.657Z,14.97
2022-11-26T01:28:16.016Z,13.97
2022-11-26T01:30:45.678Z,14.53
2022-11-26T01:33:13.652Z,12.00
2022-11-26T01:35:41.087Z,13.10
2022-11-26T01:38:11.667Z,11.87
2022-11-26T01:40:50.723Z,13.43
2022-11-26T01:43:21.332Z,12.73
2022-11-26T01:45:50.229Z,11.50
2022-11-26T01:48:23.445Z,12.80
2022-11-26T01:51:08.856Z,11.03
2022-11-26T01:53:38.230Z,11.20
2022-11-26T01:56:07.913Z,10.60
2022-11-26T01:58:40.118Z,9.73
2022-11-26T02:01:09.382Z,10.50
2022-11-26T02:03:41.811Z,9.17
2022-11-26T02:06:11.591Z,9.97
2022-11-26T02:08:39.178Z,10.50
2022-11-26T02:11:16.053Z,8.47
2022-11-26T02:13:43.632Z,10.13
2022-11-26T02:16:15.433Z,9.03
2022-11-26T02:18:45.729Z,9.87
2022-11-26T02:21:16.237Z,11.30
2022-11-26T02:24:04.984Z,10.90
2022-11-26T02:26:45.581Z,11.80
2022-11-26T02:29:17.772Z,11.37
2022-11-26T02:31:48.487Z,8.63
2022-11-26T02:34:19.116Z,10.87
2022-11-26T02:36:49.338Z,8.60
2022-11-26T02:39:17.940Z,7.77
2022-11-26T02:41:46.222Z,8.30
2022-11-26T02:44:14.198Z,8.40
2022-11-26T02:46:43.188Z,9.77
2022-11-26T02:49:13.042Z,8.87
2022-11-26T02:51:40.883Z,10.10
2022-11-26T02:54:09.717Z,9.30
2022-11-26T02:56:37.187Z,8.97
2022-11-26T02:59:05.671Z,10.60
2022-11-26T03:01:37.076Z,10.80
2022-11-26T03:04:06.741Z,10.13
2022-11-26T03:06:36.029Z,10.13
2022-11-26T03:09:03.630Z,9.43
2022-11-26T03:11:31.091Z,10.37
2022-11-26T03:13:58.810Z,10.57
2022-11-26T03:16:26.295Z,9.30
2022-11-26T03:18:53.787Z,8.17
2022-11-26T03:21:21.174Z,11.57
2022-11-26T03:23:49.962Z,9.13
2022-11-26T03:26:17.375Z,7.43
2022-11-26T03:28:44.772Z,8.60
2022-11-26T03:31:12.214Z,7.80
2022-11-26T03:33:39.656Z,8.70
2022-11-26T03:36:07.383Z,10.07
2022-11-26T03:38:34.830Z,9.37
2022-11-26T03:41:04.659Z,9.37
2022-11-26T03:43:32.057Z,9.10
2022-11-26T03:45:59.544Z,11.20
2022-11-26T03:48:27.170Z,8.70
2022-11-26T03:50:54.630Z,7.97
2022-11-26T03:53:22.028Z,9.53
2022-11-26T03:55:49.531Z,8.73
2022-11-26T03:58:18.253Z,7.17
2022-11-26T04:00:45.649Z,9.10
2022-11-26T04:03:13.145Z,10.27
2022-11-26T04:05:40.626Z,7.93
2022-11-26T04:08:08.041Z,6.27
2022-11-26T04:10:35.489Z,8.27
2022-11-26T04:13:03.122Z,7.57
2022-11-26T04:15:31.902Z,8.20
2022-11-26T04:17:59.305Z,9.30
2022-11-26T04:20:26.738Z,10.17
2022-11-26T04:22:54.104Z,9.20
2022-11-26T04:25:21.499Z,11.03
2022-11-26T04:27:49.974Z,8.97
2022-11-26T04:30:17.418Z,10.33
2022-11-26T04:32:46.150Z,8.60
2022-11-26T04:35:13.586Z,8.40
2022-11-26T04:37:41.052Z,9.87
2022-11-26T04:40:09.346Z,8.50
2022-11-26T04:42:36.810Z,9.73
2022-11-26T04:45:04.706Z,12.13
2022-11-26T04:47:32.302Z,9.80
2022-11-26T04:50:01.053Z,8.63
2022-11-26T04:52:28.422Z,9.67
2022-11-26T04:54:55.805Z,9.03
2022-11-26T04:57:23.219Z,10.20
2022-11-26T04:59:54.234Z,7.50
2022-11-26T05:02:22.741Z,10.07
2022-11-26T05:04:50.175Z,9.07
2022-11-26T05:07:19.024Z,10.80
2022-11-26T05:09:46.453Z,10.90
2022-11-26T05:12:14.899Z,10.37
2022-11-26T05:14:42.302Z,8.33
2022-11-26T05:17:09.749Z,8.10
2022-11-26T05:19:37.215Z,8.57
2022-11-26T05:22:04.611Z,8.53
2022-11-26T05:24:33.402Z,8.23
2022-11-26T05:27:00.824Z,8.13
2022-11-26T05:29:28.310Z,9.33
2022-11-26T05:31:55.843Z,8.27
2022-11-26T05:34:23.263Z,9.33
2022-11-26T05:36:50.672Z,8.27
2022-11-26T05:39:18.114Z,8.00
2022-11-26T05:41:46.922Z,8.63
2022-11-26T05:44:14.299Z,6.70
2022-11-26T05:46:43.259Z,6.67
2022-11-26T05:49:11.021Z,6.77
2022-11-26T05:51:38.494Z,7.33
2022-11-26T05:54:07.338Z,8.57
2022-11-26T05:56:34.740Z,7.67
2022-11-26T05:59:03.495Z,7.63
2022-11-26T06:01:30.918Z,8.03
2022-11-26T06:03:59.401Z,8.87
2022-11-26T06:06:27.111Z,9.20
2022-11-26T06:08:54.503Z,8.10
2022-11-26T06:11:21.932Z,8.80
2022-11-26T06:13:49.311Z,8.23
2022-11-26T06:16:18.101Z,9.07
2022-11-26T06:18:45.561Z,9.53
2022-11-26T06:21:12.971Z,8.97
2022-11-26T06:23:44.306Z,10.20
2022-11-26T06:26:17.136Z,10.63
2022-11-26T06:28:44.577Z,9.60
2022-11-26T06:31:12.028Z,10.50
2022-11-26T06:33:40.830Z,10.47
2022-11-26T06:36:08.348Z,10.80
2022-11-26T06:38:35.782Z,10.30
2022-11-26T06:41:05.146Z,10.43
2022-11-26T06:43:32.903Z,11.43
2022-11-26T06:46:02.355Z,10.60
2022-11-26T06:48:30.050Z,10.63
2022-11-26T06:51:03.477Z,10.73
2022-11-26T06:53:31.169Z,9.83
2022-11-26T06:56:00.249Z,10.07
2022-11-26T06:58:27.682Z,11.20
2022-11-26T07:00:55.335Z,11.30
2022-11-26T07:03:24.906Z,9.67
2022-11-26T07:05:53.877Z,10.83
2022-11-26T07:08:22.638Z,11.43
2022-11-26T07:10:50.050Z,11.80
2022-11-26T07:13:17.447Z,11.80
2022-11-26T07:15:44.871Z,13.37
2022-11-26T07:18:12.330Z,11.87
2022-11-26T07:20:39.725Z,11.63
2022-11-26T07:23:07.110Z,12.03
2022-11-26T07:25:35.850Z,11.27
2022-11-26T07:28:03.222Z,11.80
2022-11-26T07:30:30.665Z,11.80
2022-11-26T07:32:58.074Z,13.40
2022-11-26T07:35:25.501Z,12.73
2022-11-26T07:37:53.567Z,13.20
2022-11-26T07:40:20.962Z,12.77
2022-11-26T07:42:53.221Z,13.87
2022-11-26T07:45:20.953Z,13.70
2022-11-26T07:47:48.383Z,14.93
2022-11-26T07:50:15.863Z,13.83
2022-11-26T07:52:43.265Z,14.23
2022-11-26T07:55:12.673Z,15.93
2022-11-26T07:57:40.403Z,14.60
2022-11-26T08:00:11.301Z,14.33
2022-11-26T08:02:38.777Z,15.23
2022-11-26T08:05:06.742Z,14.00
2022-11-26T08:07:35.427Z,15.00
2022-11-26T08:10:02.920Z,16.00
2022-11-26T08:12:31.401Z,17.07
2022-11-26T08:14:58.836Z,17.23
2022-11-26T08:17:27.604Z,17.57
2022-11-26T08:19:54.994Z,16.23
2022-11-26T08:22:22.412Z,16.03
2022-11-26T08:24:50.297Z,16.63
2022-11-26T08:27:17.737Z,17.13
2022-11-26T08:29:45.151Z,18.47
2022-11-26T08:32:12.586Z,19.13
2022-11-26T08:34:41.489Z,16.83
2022-11-26T08:37:09.003Z,17.87
2022-11-26T08:39:36.459Z,17.00
2022-11-26T08:42:03.955Z,15.87
2022-11-26T08:44:31.350Z,17.50
2022-11-26T08:46:58.774Z,20.27
2022-11-26T08:49:26.247Z,17.67
2022-11-26T08:51:57.669Z,16.10
2022-11-26T08:54:25.292Z,16.23
2022-11-26T08:56:52.847Z,16.50
2022-11-26T08:59:22.907Z,16.27
2022-11-26T09:01:50.441Z,16.73
2022-11-26T09:04:17.905Z,16.17
2022-11-26T09:06:45.339Z,15.60
2022-11-26T09:09:14.489Z,16.03
2022-11-26T09:11:43.512Z,16.13
2022-11-26T09:14:11.275Z,16.37
2022-11-26T09:16:39.085Z,15.73
2022-11-26T09:19:07.420Z,15.20
2022-11-26T09:21:35.365Z,16.43
2022-11-26T09:24:02.754Z,15.33
2022-11-26T09:26:32.439Z,15.03
2022-11-26T09:29:00.067Z,14.97
2022-11-26T09:31:27.607Z,15.47
2022-11-26T09:33:56.257Z,15.97
2022-11-26T09:36:23.761Z,15.30
2022-11-26T09:38:54.115Z,16.07
2022-11-26T09:41:30.276Z,15.10
2022-11-26T09:44:04.904Z,13.90
2022-11-26T09:46:45.532Z,13.73
2022-11-26T09:49:23.393Z,13.00
2022-11-26T09:51:52.871Z,13.87
2022-11-26T09:54:21.330Z,14.27
2022-11-26T09:56:49.498Z,15.40
2022-11-26T09:59:19.763Z,13.67
2022-11-26T10:01:47.248Z,12.10
2022-11-26T10:04:20.083Z,12.40
2022-11-26T10:06:51.989Z,12.23
2022-11-26T10:09:28.531Z,12.10
2022-11-26T10:12:00.123Z,11.83
2022-11-26T10:14:52.392Z,12.43
2022-11-26T10:17:25.688Z,11.67
2022-11-26T10:20:00.340Z,11.20
2022-11-26T10:22:31.201Z,11.10
2022-11-26T10:25:00.360Z,10.40
2022-11-26T10:27:30.810Z,10.80
2022-11-26T10:30:00.517Z,10.27
2022-11-26T10:32:29.707Z,10.17
2022-11-26T10:34:57.718Z,10.07
2022-11-26T10:37:26.469Z,9.17
2022-11-26T10:40:00.078Z,8.73
2022-11-26T10:42:40.425Z,9.40
2022-11-26T10:45:17.271Z,9.17
2022-11-26T10:47:44.712Z,8.20
2022-11-26T10:50:45.929Z,7.93
2022-11-26T10:53:07.348Z,8.57
2022-11-26T10:55:37.039Z,7.80
2022-11-26T10:58:05.821Z,7.97
2022-11-26T11:00:44.123Z,7.00
2022-11-26T11:03:16.330Z,7.80
2022-11-26T11:05:44.106Z,8.00
2022-11-26T11:08:13.686Z,8.80
2022-11-26T11:10:53.787Z,7.40
2022-11-26T11:13:21.193Z,6.70
2022-11-26T11:16:00.115Z,6.27
2022-11-26T11:18:27.783Z,5.90
2022-11-26T11:20:56.673Z,6.30
2022-11-26T11:23:45.842Z,6.00
2022-11-26T11:26:16.202Z,5.77
2022-11-26T11:28:47.391Z,6.10
2022-11-26T11:31:17.080Z,7.20
2022-11-26T11:33:44.522Z,6.40
2022-11-26T11:36:19.826Z,7.00
2022-11-26T11:38:48.858Z,7.10
2022-11-26T11:41:21.556Z,6.10
2022-11-26T11:43:49.469Z,6.13
2022-11-26T11:46:28.149Z,5.97
2022-11-26T11:49:00.027Z,6.97
2022-11-26T11:51:32.030Z,6.90
2022-11-26T11:54:04.752Z,6.20
2022-11-26T11:56:35.071Z,5.80
2022-11-26T11:59:20.195Z,5.80
2022-11-26T12:02:00.412Z,5.77
2022-11-26T12:04:39.846Z,5.60
2022-11-26T12:07:22.777Z,5.30
2022-11-26T12:09:55.009Z,5.57
2022-11-26T12:12:23.850Z,5.90
2022-11-26T12:14:54.222Z,5.77
2022-11-26T12:17:33.193Z,5.30
2022-11-26T12:20:04.319Z,5.40
2022-11-26T12:22:35.694Z,5.50
2022-11-26T12:25:05.703Z,6.37
2022-11-26T12:27:34.873Z,7.40
2022-11-26T12:30:04.885Z,5.50
2022-11-26T12:32:35.825Z,6.70
2022-11-26T12:35:06.115Z,4.97
2022-11-26T12:37:37.096Z,5.30
2022-11-26T12:40:07.376Z,5.17
2022-11-26T12:42:35.919Z,5.10
2022-11-26T12:45:07.408Z,4.73
2022-11-26T12:47:38.650Z,6.00
2022-11-26T12:50:13.912Z,6.97
2022-11-26T12:52:43.070Z,7.20
2022-11-26T12:55:14.172Z,6.33
2022-11-26T12:57:43.914Z,5.63
2022-11-26T13:00:13.326Z,5.43
2022-11-26T13:02:44.261Z,4.73
2022-11-26T13:05:16.321Z,3.83
2022-11-26T13:07:51.181Z,4.20
2022-11-26T13:10:21.961Z,3.90
2022-11-26T13:12:53.550Z,3.90
2022-11-26T13:15:23.657Z,3.80
2022-11-26T13:17:52.905Z,3.57
2022-11-26T13:20:29.220Z,3.80
2022-11-26T13:23:01.440Z,3.77
2022-11-26T13:25:35.743Z,4.10
2022-11-26T13:28:07.980Z,4.00
2022-11-26T13:30:40.417Z,4.37
2022-11-26T13:33:19.834Z,3.70
2022-11-26T13:36:05.360Z,4.57
2022-11-26T13:38:36.649Z,4.20
2022-11-26T13:41:11.940Z,4.40
2022-11-26T13:44:03.077Z,5.10
2022-11-26T13:46:32.153Z,5.53
2022-11-26T13:49:03.815Z,5.20
2022-11-26T13:51:33.960Z,5.30
2022-11-26T13:54:05.610Z,4.93
2022-11-26T13:56:33.572Z,4.60
2022-11-26T13:59:02.395Z,5.40
2022-11-26T14:01:31.420Z,6.30
2022-11-26T14:03:58.978Z,4.63
2022-11-26T14:06:30.042Z,4.50
2022-11-26T14:08:57.632Z,4.50
2022-11-26T14:11:43.608Z,5.30
2022-11-26T14:14:25.907Z,5.17
2022-11-26T14:17:13.643Z,5.40
2022-11-26T14:19:59.900Z,5.20
2022-11-26T14:22:29.697Z,5.03
2022-11-26T14:24:58.152Z,6.00
2022-11-26T14:27:26.211Z,4.90
2022-11-26T14:29:59.636Z,5.70
2022-11-26T14:32:28.091Z,5.87
2022-11-26T14:34:56.340Z,5.40
2022-11-26T14:37:24.963Z,6.03
2022-11-26T14:40:00.609Z,5.90
2022-11-26T14:42:28.660Z,6.90
2022-11-26T14:45:03.243Z,7.13
2022-11-26T14:47:31.310Z,6.63
2022-11-26T14:50:01.377Z,5.60
2022-11-26T14:52:29.998Z,5.73
2022-11-26T14:54:58.795Z,6.10
2022-11-26T14:57:29.965Z,5.13
2022-11-26T14:59:58.150Z,5.90
2022-11-26T15:02:26.867Z,5.60
2022-11-26T15:05:01.829Z,6.23
2022-11-26T15:07:30.653Z,6.00
2022-11-26T15:10:01.953Z,5.77
2022-11-26T15:12:30.899Z,5.30
2022-11-26T15:14:59.945Z,5.90
2022-11-26T15:17:28.334Z,5.97
2022-11-26T15:19:57.845Z,5.30
2022-11-26T15:22:29.405Z,5.80
2022-11-26T15:24:57.949Z,5.57
2022-11-26T15:27:29.163Z,6.77
2022-11-26T15:29:58.125Z,6.90
2022-11-26T15:32:26.631Z,6.93
2022-11-26T15:34:54.868Z,6.13
2022-11-26T15:37:22.282Z,6.33
2022-11-26T15:40:04.132Z,5.70
2022-11-26T15:42:32.349Z,5.37
2022-11-26T15:45:01.212Z,4.83
2022-11-26T15:47:29.296Z,5.83
2022-11-26T15:49:57.949Z,5.63
2022-11-26T15:52:26.722Z,5.13
2022-11-26T15:55:14.792Z,5.97
2022-11-26T15:57:43.249Z,5.97
2022-11-26T16:00:20.977Z,5.90
2022-11-26T16:02:48.424Z,6.73
2022-11-26T16:05:23.588Z,6.43
2022-11-26T16:07:57.196Z,7.07
2022-11-26T16:10:26.439Z,7.40
2022-11-26T16:13:06.923Z,6.67
2022-11-26T16:15:35.834Z,7.00
2022-11-26T16:18:04.596Z,6.63
2022-11-26T16:20:32.053Z,5.80
2022-11-26T16:23:00.363Z,7.80
2022-11-26T16:25:29.496Z,6.20
2022-11-26T16:28:07.512Z,6.87
2022-11-26T16:30:36.447Z,7.33
2022-11-26T16:33:04.105Z,6.53
2022-11-26T16:35:48.116Z,6.67
2022-11-26T16:38:19.339Z,7.90
2022-11-26T16:40:46.782Z,7.23
2022-11-26T16:43:14.189Z,7.73
2022-11-26T16:45:43.253Z,7.13
2022-11-26T16:48:16.709Z,7.87
2022-11-26T16:50:44.094Z,7.53
2022-11-26T16:53:11.489Z,7.17
2022-11-26T16:55:38.885Z,8.33
2022-11-26T16:58:06.476Z,7.20
2022-11-26T17:00:34.613Z,8.20
2022-11-26T17:03:04.527Z,7.37
2022-11-26T17:05:31.962Z,9.10
2022-11-26T17:08:01.154Z,8.27
2022-11-26T17:10:30.466Z,8.67
2022-11-26T17:12:58.246Z,8.20
2022-11-26T17:15:25.649Z,7.43
2022-11-26T17:17:55.357Z,7.67
2022-11-26T17:20:25.483Z,8.13
2022-11-26T17:22:53.005Z,7.53
2022-11-26T17:25:20.422Z,7.77
2022-11-26T17:27:48.166Z,8.37
2022-11-26T17:30:17.405Z,8.33
2022-11-26T17:32:44.982Z,8.47
2022-11-26T17:35:12.732Z,6.63
2022-11-26T17:37:42.170Z,8.17
2022-11-26T17:40:16.159Z,7.13
2022-11-26T17:42:43.590Z,7.03
2022-11-26T17:45:11.671Z,7.73
2022-11-26T17:47:39.430Z,7.10
2022-11-26T17:50:07.655Z,11.60
2022-11-26T17:52:35.035Z,11.70
2022-11-26T17:55:03.820Z,10.20
2022-11-26T17:57:31.262Z,10.30
2022-11-26T17:59:58.689Z,9.60
2022-11-26T18:02:26.228Z,11.97
2022-11-26T18:04:53.991Z,16.23
2022-11-26T18:07:21.978Z,20.10
2022-11-26T18:09:49.430Z,15.13
2022-11-26T18:12:24.395Z,24.43
2022-11-26T18:14:52.486Z,28.67
2022-11-26T18:17:20.238Z,39.80
2022-11-26T18:19:47.734Z,48.10
2022-11-26T18:22:16.188Z,33.03
2022-11-26T18:24:49.207Z,24.63
2022-11-26T18:27:21.823Z,18.57
2022-11-26T18:29:49.733Z,17.53
2022-11-26T18:32:17.219Z,17.90
2022-11-26T18:34:44.654Z,18.10
2022-11-26T18:37:12.776Z,19.20
2022-11-26T18:39:41.648Z,16.80
2022-11-26T18:42:36.032Z,17.70
2022-11-26T18:44:58.273Z,17.17
2022-11-26T18:47:25.828Z,15.90
2022-11-26T18:49:54.313Z,13.40
2022-11-26T18:52:21.753Z,16.43
2022-11-26T18:54:50.226Z,14.47
2022-11-26T18:57:17.638Z,14.80
2022-11-26T18:59:46.613Z,13.53
2022-11-26T19:02:15.389Z,15.07
2022-11-26T19:04:42.821Z,15.63
2022-11-26T19:07:10.759Z,13.90
2022-11-26T19:09:38.559Z,16.33
2022-11-26T19:12:06.551Z,14.73
2022-11-26T19:14:33.962Z,15.10
2022-11-26T19:17:01.420Z,20.90
2022-11-26T19:19:30.220Z,20.50
2022-11-26T19:22:01.343Z,15.47
2022-11-26T19:24:29.596Z,15.30
2022-11-26T19:26:57.056Z,14.90
2022-11-26T19:29:24.545Z,12.47
2022-11-26T19:31:52.034Z,13.77
2022-11-26T19:34:19.475Z,13.20
2022-11-26T19:36:49.241Z,13.50
2022-11-26T19:39:17.067Z,11.73
2022-11-26T19:41:44.571Z,12.23
2022-11-26T19:44:11.975Z,13.53
2022-11-26T19:46:41.110Z,16.33
2022-11-26T19:49:11.612Z,13.73
2022-11-26T19:51:39.196Z,12.57
2022-11-26T19:54:08.242Z,12.17
2022-11-26T19:56:36.304Z,15.53
2022-11-26T19:59:04.159Z,14.00
2022-11-26T20:01:32.619Z,12.87
2022-11-26T20:04:00.767Z,12.70
2022-11-26T20:06:29.058Z,11.93
2022-11-26T20:08:58.009Z,13.67
2022-11-26T20:11:27.427Z,10.90
2022-11-26T20:13:55.027Z,13.40
2022-11-26T20:16:23.787Z,12.17
2022-11-26T20:18:51.547Z,11.20
2022-11-26T20:21:20.706Z,11.20
2022-11-26T20:23:48.656Z,11.17
2022-11-26T20:26:17.107Z,11.77
2022-11-26T20:28:46.193Z,9.57
2022-11-26T20:31:16.270Z,9.90
2022-11-26T20:33:45.902Z,9.63
2022-11-26T20:36:14.662Z,9.60
2022-11-26T20:38:42.207Z,9.00
2022-11-26T20:41:10.138Z,10.03
2022-11-26T20:43:37.968Z,10.27
2022-11-26T20:46:07.419Z,9.97
2022-11-26T20:48:36.906Z,10.20
2022-11-26T20:51:04.918Z,10.57
2022-11-26T20:53:32.861Z,10.40
2022-11-26T20:56:00.294Z,10.17
2022-11-26T20:58:27.886Z,10.60
2022-11-26T21:00:56.186Z,12.30
2022-11-26T21:03:26.170Z,10.77
2022-11-26T21:05:53.621Z,10.63
2022-11-26T21:08:21.675Z,9.93
2022-11-26T21:10:49.165Z,11.30
2022-11-26T21:13:17.483Z,10.90
2022-11-26T21:15:47.281Z,10.93
2022-11-26T21:18:14.866Z,12.47
2022-11-26T21:20:44.243Z,13.23
2022-11-26T21:23:12.730Z,13.87
2022-11-26T21:25:40.861Z,12.90
2022-11-26T21:28:08.770Z,13.33
2022-11-26T21:30:36.759Z,12.40
2022-11-26T21:33:09.070Z,12.20
2022-11-26T21:35:37.397Z,11.63
2022-11-26T21:38:06.810Z,13.20
2022-11-26T21:40:34.229Z,13.17
2022-11-26T21:43:01.625Z,12.43
2022-11-26T21:45:29.656Z,13.13
2022-11-26T21:47:57.054Z,12.27
2022-11-26T21:50:24.449Z,13.60
2022-11-26T21:52:52.891Z,13.57
2022-11-26T21:55:22.077Z,12.87
2022-11-26T21:57:49.467Z,13.43
2022-11-26T22:00:17.874Z,13.93
2022-11-26T22:02:46.390Z,11.83
2022-11-26T22:05:13.781Z,11.97
2022-11-26T22:07:41.250Z,12.07
2022-11-26T22:10:09.403Z,11.90
2022-11-26T22:12:38.153Z,11.57
2022-11-26T22:15:05.890Z,11.33
2022-11-26T22:17:33.249Z,11.57
2022-11-26T22:20:00.645Z,12.03
2022-11-26T22:22:28.086Z,10.63
2022-11-26T22:24:55.565Z,12.47
2022-11-26T22:27:22.988Z,12.63
2022-11-26T22:29:51.739Z,11.67
2022-11-26T22:32:19.123Z,11.37
2022-11-26T22:34:46.523Z,10.63
2022-11-26T22:37:13.967Z,12.17
2022-11-26T22:39:41.729Z,10.67
2022-11-26T22:42:10.455Z,11.13
2022-11-26T22:44:37.861Z,10.07
2022-11-26T22:47:06.666Z,10.63
2022-11-26T22:49:34.054Z,10.43
2022-11-26T22:52:01.437Z,10.07
2022-11-26T22:54:28.877Z,10.33
2022-11-26T22:56:56.419Z,10.17
2022-11-26T22:59:23.819Z,9.93
2022-11-26T23:01:55.623Z,10.43
2022-11-26T23:04:24.347Z,10.10
2022-11-26T23:06:51.728Z,10.30
2022-11-26T23:09:19.151Z,9.50
2022-11-26T23:11:46.579Z,9.93
2022-11-26T23:14:14.073Z,9.63
2022-11-26T23:16:42.033Z,11.23
2022-11-26T23:19:09.882Z,8.70
2022-11-26T23:21:39.773Z,10.03
2022-11-26T23:24:07.684Z,9.70
2022-11-26T23:26:36.467Z,8.83
2022-11-26T23:29:04.949Z,9.07
2022-11-26T23:31:33.532Z,9.20
2022-11-26T23:34:02.329Z,9.10
2022-11-26T23:36:30.079Z,8.67
2022-11-26T23:39:00.044Z,9.10
2022-11-26T23:41:27.700Z,9.47
2022-11-26T23:43:55.116Z,8.83
2022-11-26T23:46:23.823Z,9.00
2022-11-26T23:48:51.561Z,8.63
2022-11-26T23:51:19.548Z,8.50
2022-11-26T23:53:47.590Z,9.07
2022-11-26T23:56:17.022Z,9.43
2022-11-26T23:58:44.704Z,8.57
